createdAt,value
2019-03-03T00:01:37.385Z,81.80
2019-03-03T00:04:08.215Z,82.01
2019-03-03T00:06:37.853Z,82.60
2019-03-03T00:09:08.202Z,82.81
2019-03-03T00:11:37.906Z,83.36
2019-03-03T00:14:07.681Z,83.44
2019-03-03T00:16:37.386Z,83.86
2019-03-03T00:19:07.065Z,83.39
2019-03-03T00:21:36.754Z,83.74
2019-03-03T00:24:06.470Z,83.47
2019-03-03T00:26:36.129Z,83.98
2019-03-03T00:29:05.792Z,84.18
2019-03-03T00:31:41.529Z,84.24
2019-03-03T00:34:11.226Z,84.25
2019-03-03T00:36:59.109Z,84.58
2019-03-03T00:39:36.605Z,84.76
2019-03-03T00:42:23.175Z,85.06
2019-03-03T00:45:00.504Z,85.33
2019-03-03T00:47:38.068Z,84.85
2019-03-03T00:50:09.535Z,85.26
2019-03-03T00:52:40.824Z,85.12
2019-03-03T00:55:14.820Z,85.53
2019-03-03T00:57:48.748Z,85.29
2019-03-03T01:00:37.980Z,85.49
2019-03-03T01:03:09.399Z,85.79
2019-03-03T01:05:56.962Z,86.09
2019-03-03T01:08:37.493Z,85.71
2019-03-03T01:11:17.803Z,85.87
2019-03-03T01:13:58.212Z,85.72
2019-03-03T01:16:41.825Z,86.06
2019-03-03T01:19:13.146Z,85.76
2019-03-03T01:22:00.830Z,86.08
2019-03-03T01:24:32.148Z,86.28
2019-03-03T01:27:01.910Z,86.03
2019-03-03T01:29:31.573Z,85.60
2019-03-03T01:32:01.513Z,85.91
2019-03-03T01:34:34.231Z,85.91
2019-03-03T01:37:03.958Z,85.71
2019-03-03T01:39:33.931Z,85.61
2019-03-03T01:42:03.716Z,85.25
2019-03-03T01:44:33.371Z,85.20
2019-03-03T01:47:03.052Z,85.19
2019-03-03T01:49:32.776Z,84.61
2019-03-03T01:52:02.493Z,84.58
2019-03-03T01:54:32.194Z,84.61
2019-03-03T01:57:01.946Z,84.69
2019-03-03T01:59:31.613Z,84.68
2019-03-03T02:02:01.335Z,84.90
2019-03-03T02:04:30.982Z,84.76
2019-03-03T02:07:00.714Z,84.95
2019-03-03T02:09:30.661Z,84.90
2019-03-03T02:12:00.437Z,84.80
2019-03-03T02:14:30.212Z,84.67
2019-03-03T02:16:59.956Z,84.74
2019-03-03T02:19:29.988Z,85.10
2019-03-03T02:21:59.741Z,85.11
2019-03-03T02:24:29.384Z,84.93
2019-03-03T02:26:59.116Z,85.31
2019-03-03T02:29:28.842Z,85.33
2019-03-03T02:31:58.766Z,84.89
2019-03-03T02:34:28.488Z,84.98
2019-03-03T02:36:58.529Z,85.31
2019-03-03T02:39:31.371Z,85.21
2019-03-03T02:42:01.079Z,85.59
2019-03-03T02:44:30.803Z,84.86
2019-03-03T02:47:00.461Z,85.28
2019-03-03T02:49:30.160Z,85.43
2019-03-03T02:52:07.107Z,85.20
2019-03-03T02:54:36.757Z,85.25
2019-03-03T02:57:06.457Z,85.42
2019-03-03T02:59:36.128Z,85.52
2019-03-03T03:02:07.519Z,85.54
2019-03-03T03:04:37.293Z,85.20
2019-03-03T03:07:08.551Z,85.58
2019-03-03T03:09:39.933Z,85.03
2019-03-03T03:12:13.998Z,85.41
2019-03-03T03:14:45.617Z,85.19
2019-03-03T03:17:26.438Z,84.71
2019-03-03T03:19:58.028Z,84.46
2019-03-03T03:22:35.834Z,84.66
2019-03-03T03:25:26.665Z,84.19
2019-03-03T03:28:14.323Z,84.26
2019-03-03T03:30:45.723Z,84.04
2019-03-03T03:33:20.003Z,83.72
2019-03-03T03:35:54.255Z,83.07
2019-03-03T03:38:34.274Z,82.71
2019-03-03T03:41:05.612Z,83.07
2019-03-03T03:43:49.261Z,83.15
2019-03-03T03:46:20.598Z,82.70
2019-03-03T03:49:06.968Z,83.08
2019-03-03T03:51:55.030Z,82.41
2019-03-03T03:54:25.873Z,82.19
2019-03-03T03:57:05.856Z,82.28
2019-03-03T03:59:42.962Z,82.43
2019-03-03T04:02:32.745Z,82.68
2019-03-03T04:05:20.815Z,83.61
2019-03-03T04:07:55.033Z,84.90
2019-03-03T04:10:26.373Z,85.71
2019-03-03T04:13:06.600Z,86.87
2019-03-03T04:15:40.805Z,87.24
2019-03-03T04:18:18.272Z,87.43
2019-03-03T04:21:02.001Z,87.42
2019-03-03T04:23:35.989Z,87.35
2019-03-03T04:26:09.865Z,88.18
2019-03-03T04:28:43.908Z,88.18
2019-03-03T04:31:21.372Z,88.23
2019-03-03T04:33:52.848Z,88.12
2019-03-03T04:36:30.125Z,88.37
2019-03-03T04:39:10.711Z,88.70
2019-03-03T04:41:44.853Z,88.07
2019-03-03T04:44:25.397Z,88.37
2019-03-03T04:46:56.707Z,88.30
2019-03-03T04:49:44.647Z,88.96
2019-03-03T04:52:34.326Z,89.25
2019-03-03T04:55:09.885Z,89.04
2019-03-03T04:57:46.772Z,89.77
2019-03-03T05:00:20.867Z,89.88
2019-03-03T05:03:04.125Z,90.30
2019-03-03T05:05:38.153Z,90.68
2019-03-03T05:08:12.138Z,90.52
2019-03-03T05:10:44.538Z,90.76
2019-03-03T05:13:18.959Z,90.53
2019-03-03T05:15:56.111Z,90.62
2019-03-03T05:18:42.492Z,90.70
2019-03-03T05:21:12.230Z,90.73
2019-03-03T05:23:42.953Z,91.07
2019-03-03T05:26:12.636Z,91.32
2019-03-03T05:28:42.293Z,91.74
2019-03-03T05:31:12.165Z,91.67
2019-03-03T05:33:41.876Z,91.88
2019-03-03T05:36:11.535Z,92.05
2019-03-03T05:38:44.444Z,91.80
2019-03-03T05:41:14.105Z,91.69
2019-03-03T05:43:43.809Z,91.72
2019-03-03T05:46:15.193Z,91.68
2019-03-03T05:48:44.889Z,91.62
2019-03-03T05:51:14.613Z,91.79
2019-03-03T05:53:44.382Z,92.05
2019-03-03T05:56:14.098Z,91.97
2019-03-03T05:58:43.894Z,92.21
2019-03-03T06:01:13.540Z,91.84
2019-03-03T06:03:43.215Z,91.78
2019-03-03T06:06:15.979Z,91.94
2019-03-03T06:08:45.735Z,91.91
2019-03-03T06:11:15.384Z,91.91
2019-03-03T06:13:45.096Z,91.77
2019-03-03T06:16:14.737Z,91.70
2019-03-03T06:18:44.475Z,91.79
2019-03-03T06:21:14.265Z,91.73
2019-03-03T06:23:43.937Z,91.74
2019-03-03T06:26:15.234Z,91.76
2019-03-03T06:28:44.937Z,91.72
2019-03-03T06:31:14.593Z,91.63
2019-03-03T06:33:44.414Z,91.80
2019-03-03T06:36:14.201Z,91.84
2019-03-03T06:38:43.849Z,91.91
2019-03-03T06:41:13.769Z,91.89
2019-03-03T06:43:43.460Z,92.03
2019-03-03T06:46:13.165Z,91.91
2019-03-03T06:48:42.993Z,92.01
2019-03-03T06:51:12.638Z,92.19
2019-03-03T06:53:42.307Z,92.28
2019-03-03T06:56:14.240Z,92.68
2019-03-03T06:58:43.654Z,92.50
2019-03-03T07:01:13.346Z,92.63
2019-03-03T07:03:43.030Z,92.61
2019-03-03T07:06:12.739Z,92.75
2019-03-03T07:08:42.402Z,92.70
2019-03-03T07:11:12.089Z,92.45
2019-03-03T07:13:41.780Z,92.48
2019-03-03T07:16:11.414Z,92.47
2019-03-03T07:18:41.652Z,92.43
2019-03-03T07:21:11.308Z,92.46
2019-03-03T07:23:41.056Z,92.36
2019-03-03T07:26:10.767Z,92.37
2019-03-03T07:28:40.475Z,92.31
2019-03-03T07:31:10.284Z,92.34
2019-03-03T07:33:40.021Z,92.20
2019-03-03T07:36:09.712Z,92.27
2019-03-03T07:38:39.377Z,92.09
2019-03-03T07:41:09.043Z,92.08
2019-03-03T07:43:38.746Z,92.09
2019-03-03T07:46:08.391Z,92.23
2019-03-03T07:48:38.021Z,92.59
2019-03-03T07:51:07.672Z,92.67
2019-03-03T07:53:37.368Z,92.26
2019-03-03T07:56:07.097Z,92.24
2019-03-03T07:58:36.749Z,92.23
2019-03-03T08:01:06.465Z,92.14
2019-03-03T08:03:36.041Z,92.22
2019-03-03T08:06:05.746Z,91.74
2019-03-03T08:08:35.398Z,91.64
2019-03-03T08:11:05.134Z,91.34
2019-03-03T08:13:34.783Z,90.79
2019-03-03T08:16:04.562Z,90.73
2019-03-03T08:18:34.227Z,90.44
2019-03-03T08:21:03.965Z,90.47
2019-03-03T08:23:33.623Z,90.49
2019-03-03T08:26:03.306Z,90.51
2019-03-03T08:28:33.068Z,90.56
2019-03-03T08:31:03.448Z,90.42
2019-03-03T08:33:33.127Z,90.55
2019-03-03T08:36:02.840Z,89.90
2019-03-03T08:38:32.506Z,89.65
2019-03-03T08:41:03.325Z,89.63
2019-03-03T08:43:34.667Z,89.63
2019-03-03T08:46:07.162Z,89.56
2019-03-03T08:48:44.334Z,89.10
2019-03-03T08:51:16.102Z,88.88
2019-03-03T08:53:47.392Z,88.26
2019-03-03T08:56:21.439Z,88.16
2019-03-03T08:58:52.821Z,88.56
2019-03-03T09:01:26.913Z,88.78
2019-03-03T09:04:00.244Z,88.33
2019-03-03T09:06:34.541Z,88.58
2019-03-03T09:09:19.615Z,88.36
2019-03-03T09:12:09.400Z,88.29
2019-03-03T09:14:40.743Z,88.10
2019-03-03T09:17:12.045Z,88.04
2019-03-03T09:19:49.217Z,87.24
2019-03-03T09:22:36.719Z,87.87
2019-03-03T09:25:10.043Z,87.72
2019-03-03T09:27:59.865Z,87.46
2019-03-03T09:30:31.167Z,87.34
2019-03-03T09:33:05.191Z,87.35
2019-03-03T09:35:36.508Z,87.49
2019-03-03T09:38:13.863Z,86.54
2019-03-03T09:40:48.474Z,85.69
2019-03-03T09:43:30.883Z,85.68
2019-03-03T09:46:18.115Z,85.85
2019-03-03T09:49:05.633Z,85.28
2019-03-03T09:51:39.677Z,85.27
2019-03-03T09:54:11.187Z,84.95
2019-03-03T09:56:44.986Z,84.78
2019-03-03T09:59:22.243Z,84.86
2019-03-03T10:02:09.691Z,84.75
2019-03-03T10:04:57.034Z,84.39
2019-03-03T10:07:37.963Z,83.83
2019-03-03T10:10:28.226Z,83.16
2019-03-03T10:13:16.191Z,82.19
2019-03-03T10:15:47.601Z,82.47
2019-03-03T10:18:25.154Z,82.42
2019-03-03T10:20:59.208Z,82.07
2019-03-03T10:23:36.501Z,80.63
2019-03-03T10:26:10.342Z,80.27
2019-03-03T10:28:44.228Z,80.00
2019-03-03T10:31:15.535Z,80.64
2019-03-03T10:34:01.748Z,81.22
2019-03-03T10:36:45.327Z,80.43
2019-03-03T10:39:22.445Z,80.79
2019-03-03T10:42:05.588Z,80.25
2019-03-03T10:44:46.006Z,79.80
2019-03-03T10:47:20.296Z,80.69
2019-03-03T10:49:54.590Z,80.08
2019-03-03T10:52:26.063Z,79.32
2019-03-03T10:54:57.390Z,78.87
2019-03-03T10:57:31.444Z,77.59
2019-03-03T11:00:21.248Z,78.39
2019-03-03T11:03:08.868Z,77.80
2019-03-03T11:05:55.187Z,75.93
2019-03-03T11:08:42.755Z,77.48
2019-03-03T11:11:23.376Z,78.48
2019-03-03T11:14:07.135Z,78.32
2019-03-03T11:16:50.502Z,78.49
2019-03-03T11:19:21.836Z,78.47
2019-03-03T11:21:59.103Z,78.75
2019-03-03T11:24:36.414Z,78.78
2019-03-03T11:27:13.868Z,77.65
2019-03-03T11:29:57.820Z,77.09
2019-03-03T11:32:44.065Z,77.20
2019-03-03T11:35:15.550Z,76.07
2019-03-03T11:37:49.941Z,76.54
2019-03-03T11:40:30.661Z,76.01
2019-03-03T11:43:10.838Z,75.40
2019-03-03T11:45:42.679Z,74.99
2019-03-03T11:48:30.557Z,74.67
2019-03-03T11:51:04.805Z,72.67
2019-03-03T11:53:36.078Z,72.14
2019-03-03T11:56:13.199Z,72.37
2019-03-03T11:58:47.500Z,72.14
2019-03-03T12:01:21.726Z,70.13
2019-03-03T12:04:08.337Z,69.58
2019-03-03T12:06:42.159Z,71.34
2019-03-03T12:09:29.771Z,71.82
2019-03-03T12:12:16.073Z,72.31
2019-03-03T12:14:51.109Z,72.63
2019-03-03T12:17:25.517Z,73.35
2019-03-03T12:19:56.894Z,72.18
2019-03-03T12:22:30.664Z,70.52
2019-03-03T12:25:02.166Z,72.18
2019-03-03T12:27:36.681Z,71.16
2019-03-03T12:30:17.048Z,71.14
2019-03-03T12:32:48.655Z,70.94
2019-03-03T12:35:20.099Z,70.64
2019-03-03T12:37:51.429Z,70.68
2019-03-03T12:40:39.146Z,71.21
2019-03-03T12:43:10.777Z,70.95
2019-03-03T12:45:42.126Z,69.37
2019-03-03T12:48:29.399Z,68.92
2019-03-03T12:51:00.807Z,70.08
2019-03-03T12:53:34.965Z,70.32
2019-03-03T12:56:12.120Z,69.72
2019-03-03T12:58:43.522Z,70.42
2019-03-03T13:01:31.082Z,70.89
2019-03-03T13:04:02.959Z,70.82
2019-03-03T13:06:43.458Z,70.02
2019-03-03T13:09:24.038Z,70.86
2019-03-03T13:12:01.259Z,70.94
2019-03-03T13:14:48.814Z,71.33
2019-03-03T13:17:29.150Z,70.93
2019-03-03T13:20:06.581Z,72.14
2019-03-03T13:22:46.793Z,71.92
2019-03-03T13:25:18.479Z,72.50
2019-03-03T13:27:58.827Z,71.67
2019-03-03T13:30:34.661Z,71.23
2019-03-03T13:33:20.854Z,71.64
2019-03-03T13:36:08.752Z,72.30
2019-03-03T13:38:40.639Z,72.01
2019-03-03T13:41:18.803Z,71.41
2019-03-03T13:43:48.769Z,71.56
2019-03-03T13:46:20.171Z,71.03
2019-03-03T13:48:51.332Z,70.62
2019-03-03T13:51:21.429Z,70.56
2019-03-03T13:53:51.274Z,70.92
2019-03-03T13:56:21.364Z,71.32
2019-03-03T13:58:51.539Z,71.12
2019-03-03T14:01:21.453Z,72.27
2019-03-03T14:03:51.195Z,72.16
2019-03-03T14:06:21.271Z,72.17
2019-03-03T14:08:51.069Z,71.94
2019-03-03T14:11:31.204Z,71.96
2019-03-03T14:14:04.630Z,72.81
2019-03-03T14:16:34.746Z,72.56
2019-03-03T14:19:04.650Z,72.09
2019-03-03T14:21:34.570Z,71.78
2019-03-03T14:24:04.810Z,71.89
2019-03-03T14:26:34.876Z,72.72
2019-03-03T14:29:05.473Z,71.78
2019-03-03T14:31:36.284Z,71.97
2019-03-03T14:38:05.840Z,71.88
2019-03-03T14:40:45.235Z,72.66
2019-03-03T14:43:20.181Z,72.62
2019-03-03T14:45:54.882Z,72.32
2019-03-03T14:48:33.214Z,72.32
2019-03-03T14:51:06.241Z,72.53
2019-03-03T14:54:13.592Z,73.29
2019-03-03T14:56:45.814Z,74.11
2019-03-03T14:59:18.335Z,74.17
2019-03-03T15:01:58.902Z,75.18
2019-03-03T15:04:45.561Z,75.09
2019-03-03T15:07:19.452Z,75.67
2019-03-03T15:09:54.874Z,76.56
2019-03-03T15:12:27.960Z,77.23
2019-03-03T15:15:02.730Z,77.67
2019-03-03T15:17:50.126Z,78.12
2019-03-03T15:20:24.512Z,78.17
2019-03-03T15:22:56.845Z,78.76
2019-03-03T15:25:31.296Z,78.95
2019-03-03T15:28:06.150Z,79.47
2019-03-03T15:30:38.008Z,79.53
2019-03-03T15:33:24.778Z,79.98
2019-03-03T15:35:56.168Z,80.36
2019-03-03T15:38:28.030Z,80.44
2019-03-03T15:40:58.794Z,80.68
2019-03-03T15:43:28.827Z,81.53
2019-03-03T15:45:58.951Z,81.85
2019-03-03T15:48:29.254Z,82.16
2019-03-03T15:50:59.462Z,82.63
2019-03-03T15:53:30.064Z,83.04
2019-03-03T15:56:00.220Z,83.01
2019-03-03T15:58:30.718Z,83.93
2019-03-03T16:01:01.147Z,84.35
2019-03-03T16:03:31.338Z,84.67
2019-03-03T16:06:01.230Z,84.80
2019-03-03T16:08:31.177Z,84.82
2019-03-03T16:11:05.619Z,85.17
2019-03-03T16:13:35.870Z,85.35
2019-03-03T16:16:06.769Z,85.19
2019-03-03T16:18:38.076Z,85.63
2019-03-03T16:21:08.252Z,85.73
2019-03-03T16:23:38.365Z,86.04
2019-03-03T16:26:08.832Z,85.91
2019-03-03T16:28:38.874Z,85.54
2019-03-03T16:31:08.611Z,86.27
2019-03-03T16:33:41.366Z,86.68
2019-03-03T16:36:11.885Z,86.86
2019-03-03T16:38:42.813Z,87.17
2019-03-03T16:41:14.187Z,87.50
2019-03-03T16:43:45.036Z,87.65
2019-03-03T16:46:15.843Z,87.78
2019-03-03T16:48:46.529Z,87.39
2019-03-03T16:51:16.571Z,87.55
2019-03-03T16:53:47.879Z,87.99
2019-03-03T16:56:18.469Z,88.24
2019-03-03T16:58:50.216Z,88.59
2019-03-03T17:01:20.669Z,88.82
2019-03-03T17:03:50.652Z,88.77
2019-03-03T17:06:21.970Z,88.99
2019-03-03T17:08:51.906Z,88.80
2019-03-03T17:11:21.737Z,89.14
2019-03-03T17:13:51.613Z,89.40
2019-03-03T17:16:21.572Z,89.43
2019-03-03T17:18:52.115Z,89.52
2019-03-03T17:21:22.190Z,89.53
2019-03-03T17:23:52.902Z,89.66
2019-03-03T17:26:24.601Z,89.79
2019-03-03T17:28:54.869Z,89.94
2019-03-03T17:31:26.167Z,90.31
2019-03-03T17:33:57.025Z,90.35
2019-03-03T17:36:29.571Z,90.43
2019-03-03T17:39:07.517Z,90.38
2019-03-03T17:41:38.652Z,90.46
2019-03-03T17:44:18.073Z,90.49
2019-03-03T17:47:00.727Z,90.73
2019-03-03T17:50:22.682Z,90.78
2019-03-03T17:56:40.656Z,90.80
2019-03-03T17:59:10.608Z,91.21
2019-03-03T18:01:40.678Z,91.38
2019-03-03T18:04:11.207Z,91.67
2019-03-03T18:06:47.835Z,91.69
2019-03-03T18:09:18.478Z,91.63
2019-03-03T18:11:54.487Z,91.82
2019-03-03T18:14:26.159Z,91.76
2019-03-03T18:17:00.030Z,91.94
2019-03-03T18:19:33.100Z,91.42
2019-03-03T18:22:03.707Z,91.51
2019-03-03T18:24:33.975Z,91.56
2019-03-03T18:27:03.891Z,91.38
2019-03-03T18:29:34.269Z,91.85
2019-03-03T18:32:04.138Z,91.59
2019-03-03T18:34:34.092Z,91.85
2019-03-03T18:37:04.344Z,91.99
2019-03-03T18:39:34.114Z,92.06
2019-03-03T18:42:04.353Z,91.83
2019-03-03T18:44:34.193Z,91.57
2019-03-03T18:47:04.494Z,91.77
2019-03-03T18:49:34.527Z,92.00
2019-03-03T18:52:05.107Z,92.23
2019-03-03T18:54:38.967Z,92.17
2019-03-03T18:57:09.687Z,92.15
2019-03-03T18:59:40.360Z,92.20
2019-03-03T19:02:10.678Z,92.70
2019-03-03T19:04:41.202Z,92.70
2019-03-03T19:07:12.513Z,92.97
2019-03-03T19:09:43.459Z,92.85
2019-03-03T19:12:14.531Z,92.90
2019-03-03T19:14:44.633Z,93.24
2019-03-03T19:17:14.771Z,93.43
2019-03-03T19:19:46.376Z,93.38
2019-03-03T19:22:16.976Z,93.45
2019-03-03T19:24:47.175Z,93.49
2019-03-03T19:27:16.806Z,93.77
2019-03-03T19:29:47.392Z,94.04
2019-03-03T19:32:17.762Z,93.98
2019-03-03T19:34:48.017Z,94.09
2019-03-03T19:37:18.988Z,94.13
2019-03-03T19:39:49.437Z,94.15
2019-03-03T19:42:20.062Z,94.26
2019-03-03T19:44:51.015Z,94.38
2019-03-03T19:47:20.972Z,94.47
2019-03-03T19:49:50.994Z,94.08
2019-03-03T19:52:21.990Z,94.35
2019-03-03T19:54:53.130Z,94.29
2019-03-03T19:57:23.281Z,94.25
2019-03-03T20:00:01.063Z,94.08
2019-03-03T20:02:31.874Z,93.96
2019-03-03T20:05:02.180Z,94.06
2019-03-03T20:07:32.434Z,93.85
2019-03-03T20:10:12.572Z,93.62
2019-03-03T20:12:43.159Z,93.42
2019-03-03T20:15:13.555Z,93.37
2019-03-03T20:17:46.095Z,93.24
2019-03-03T20:20:23.164Z,93.42
2019-03-03T20:22:53.402Z,92.92
2019-03-03T20:25:25.231Z,92.85
2019-03-03T20:27:59.219Z,92.84
2019-03-03T20:30:29.681Z,92.52
2019-03-03T20:32:59.670Z,92.29
2019-03-03T20:35:32.150Z,92.30
2019-03-03T20:38:02.695Z,92.15
2019-03-03T20:40:33.251Z,91.83
2019-03-03T20:43:04.586Z,92.07
2019-03-03T20:45:35.270Z,92.18
2019-03-03T20:48:05.677Z,91.57
2019-03-03T20:50:37.826Z,91.70
2019-03-03T20:53:08.069Z,91.39
2019-03-03T20:55:38.586Z,91.76
2019-03-03T20:58:09.817Z,91.58
2019-03-03T21:00:40.270Z,91.73
2019-03-03T21:03:10.631Z,91.89
2019-03-03T21:06:19.168Z,92.02
2019-03-03T21:09:33.339Z,92.08
2019-03-03T21:12:10.828Z,91.96
2019-03-03T21:14:40.854Z,91.94
2019-03-03T21:17:10.845Z,92.24
2019-03-03T21:19:40.837Z,91.98
2019-03-03T21:22:11.030Z,91.95
2019-03-03T21:24:40.913Z,92.00
2019-03-03T21:27:11.031Z,92.06
2019-03-03T21:29:41.009Z,91.94
2019-03-03T21:32:11.456Z,91.93
2019-03-03T21:34:41.443Z,92.04
2019-03-03T21:37:11.788Z,91.59
2019-03-03T21:39:42.090Z,91.82
2019-03-03T21:42:12.017Z,91.85
2019-03-03T21:44:42.790Z,91.89
2019-03-03T21:47:13.284Z,92.03
2019-03-03T21:49:43.506Z,91.93
2019-03-03T21:52:13.366Z,91.24
2019-03-03T21:54:43.308Z,91.55
2019-03-03T21:57:13.681Z,91.76
2019-03-03T21:59:43.984Z,91.65
2019-03-03T22:02:15.534Z,91.82
2019-03-03T22:04:45.809Z,91.58
2019-03-03T22:07:17.215Z,91.73
2019-03-03T22:09:47.283Z,91.48
2019-03-03T22:12:17.431Z,91.47
2019-03-03T22:14:47.291Z,91.45
2019-03-03T22:17:17.310Z,91.69
2019-03-03T22:19:47.421Z,91.77
2019-03-03T22:22:18.098Z,91.65
2019-03-03T22:24:52.760Z,91.57
2019-03-03T22:27:29.927Z,91.62
2019-03-03T22:30:03.195Z,91.53
2019-03-03T22:32:42.210Z,91.42
2019-03-03T22:35:20.183Z,91.77
2019-03-03T22:38:01.408Z,91.28
2019-03-03T22:40:41.745Z,91.37
2019-03-03T22:43:20.863Z,91.73
2019-03-03T22:45:57.075Z,91.65
2019-03-03T22:48:27.346Z,91.64
2019-03-03T22:50:57.647Z,91.63
2019-03-03T22:53:28.213Z,91.41
2019-03-03T22:55:58.258Z,91.57
2019-03-03T22:58:28.479Z,91.33
2019-03-03T23:01:08.137Z,90.98
2019-03-03T23:03:56.547Z,91.07
2019-03-03T23:06:36.715Z,91.26
2019-03-03T23:09:12.695Z,91.09
2019-03-03T23:12:13.141Z,91.46
2019-03-03T23:14:48.879Z,91.20
2019-03-03T23:17:43.944Z,91.39
2019-03-03T23:20:25.610Z,91.98
2019-03-03T23:23:17.830Z,92.18
2019-03-03T23:25:52.203Z,92.18
2019-03-03T23:28:22.229Z,92.14
2019-03-03T23:30:52.779Z,92.34
2019-03-03T23:33:22.571Z,92.36
2019-03-03T23:35:52.864Z,92.13
2019-03-03T23:38:22.664Z,92.43
2019-03-03T23:40:56.124Z,92.41
2019-03-03T23:43:26.972Z,92.60
2019-03-03T23:45:57.164Z,92.41
2019-03-03T23:48:27.171Z,92.45
2019-03-03T23:50:57.121Z,92.09
2019-03-03T23:53:26.999Z,91.80
2019-03-03T23:55:57.258Z,91.58
2019-03-03T23:58:28.035Z,91.47
